Time;durP1;ratioP1;P1;durP2;ratioP2;P2;SDS_P1;SDS_P2;PMS_P1;PMS_P2;Temp;Humidity;BMP_temperature;BMP_pressure;BME280_temperature;BME280_humidity;BME280_pressure;Samples;Min_cycle;Max_cycle;Signal;HPM_P1;HPM_P2
2023/08/24 00:00:54;;;;;;;6.43;5.68;;;21.00;99.90;;;;;;5010741;28;20180;-29
2023/08/24 00:03:21;;;;;;;6.97;6.25;;;20.90;99.90;;;;;;5010936;28;20211;-30
2023/08/24 00:05:48;;;;;;;8.43;6.55;;;20.90;99.90;;;;;;5010649;28;20719;-29
2023/08/24 00:08:14;;;;;;;6.40;5.78;;;20.80;99.90;;;;;;5010711;28;20242;-29
2023/08/24 00:10:43;;;;;;;6.97;6.22;;;20.80;99.90;;;;;;4994004;28;20210;-29
2023/08/24 00:13:09;;;;;;;7.35;6.00;;;20.70;99.90;;;;;;4994056;28;20203;-29
2023/08/24 00:15:36;;;;;;;6.82;6.20;;;20.70;99.90;;;;;;5010596;28;20183;-29
2023/08/24 00:18:02;;;;;;;9.00;6.47;;;20.60;99.90;;;;;;4993912;28;20749;-29
2023/08/24 00:20:28;;;;;;;9.60;7.07;;;20.60;99.90;;;;;;4994158;28;20183;-29
2023/08/24 00:22:54;;;;;;;6.55;5.95;;;20.60;99.90;;;;;;4994376;28;20183;-29
2023/08/24 00:25:20;;;;;;;7.88;6.60;;;20.40;99.90;;;;;;4993928;28;20191;-29
2023/08/24 00:27:46;;;;;;;8.85;6.43;;;20.40;99.90;;;;;;4993774;28;20207;-29
2023/08/24 00:30:12;;;;;;;7.43;6.53;;;20.40;99.90;;;;;;4993442;28;20281;-29
2023/08/24 00:32:38;;;;;;;7.78;6.95;;;20.30;99.90;;;;;;4993734;28;20194;-30
2023/08/24 00:35:08;;;;;;;7.72;6.28;;;20.30;99.90;;;;;;4993871;28;20179;-29
2023/08/24 00:37:34;;;;;;;9.85;6.88;;;20.20;99.90;;;;;;4993718;28;20203;-29
2023/08/24 00:40:04;;;;;;;7.30;6.60;;;20.20;99.90;;;;;;4993835;28;20251;-29
2023/08/24 00:42:32;;;;;;;7.43;6.70;;;20.30;99.90;;;;;;4994034;28;20234;-29
2023/08/24 00:44:58;;;;;;;6.78;6.03;;;20.30;99.90;;;;;;4993932;28;20179;-29
2023/08/24 00:47:25;;;;;;;7.30;6.57;;;20.30;99.90;;;;;;4993455;28;20203;-29
2023/08/24 00:49:51;;;;;;;8.43;7.03;;;20.30;99.90;;;;;;4993400;28;20195;-30
2023/08/24 00:52:18;;;;;;;10.65;6.80;;;20.30;99.90;;;;;;4993839;28;20194;-29
2023/08/24 00:54:45;;;;;;;7.60;6.22;;;20.20;99.90;;;;;;4992835;28;20211;-29
2023/08/24 00:57:11;;;;;;;7.30;6.65;;;20.20;99.90;;;;;;4993664;28;20175;-29
2023/08/24 00:59:37;;;;;;;8.25;6.57;;;20.20;99.90;;;;;;4993846;28;20195;-29
2023/08/24 01:02:04;;;;;;;10.80;6.97;;;20.20;99.90;;;;;;4993357;28;20270;-29
2023/08/24 01:04:30;;;;;;;7.88;6.82;;;20.10;99.90;;;;;;4978556;28;20274;-29
2023/08/24 01:06:56;;;;;;;6.57;5.72;;;20.00;99.90;;;;;;4990273;28;20187;-29
2023/08/24 01:09:22;;;;;;;9.23;6.43;;;20.00;99.90;;;;;;4974265;28;20210;-29
2023/08/24 01:12:08;;;;;;;7.15;6.45;;;20.00;99.90;;;;;;5006376;28;20188;-29
2023/08/24 01:14:53;;;;;;;7.40;6.53;;;19.90;99.90;;;;;;4963918;28;20234;-29
2023/08/24 01:17:23;;;;;;;6.88;6.22;;;20.00;99.90;;;;;;4990002;28;20184;-29
2023/08/24 01:19:49;;;;;;;8.40;6.82;;;20.00;99.90;;;;;;4990225;28;20190;-29
2023/08/24 01:22:37;;;;;;;9.00;7.35;;;19.90;99.90;;;;;;4990106;28;20183;-29
2023/08/24 01:25:23;;;;;;;7.45;6.72;;;20.00;99.90;;;;;;4990753;28;20191;-30
2023/08/24 01:27:51;;;;;;;9.35;6.93;;;20.00;99.90;;;;;;4991179;28;20227;-30
2023/08/24 01:30:18;;;;;;;8.23;6.18;;;19.90;99.90;;;;;;4991568;28;20180;-30
2023/08/24 01:32:44;;;;;;;7.18;6.45;;;19.90;99.90;;;;;;5007125;28;20212;-30
2023/08/24 01:35:10;;;;;;;6.72;6.03;;;19.90;99.90;;;;;;5005558;28;20180;-30
2023/08/24 01:37:37;;;;;;;7.60;6.57;;;19.90;99.90;;;;;;4989864;28;20259;-30
2023/08/24 01:40:13;;;;;;;7.43;6.60;;;19.90;99.90;;;;;;5006515;28;20184;-29
2023/08/24 01:43:00;;;;;;;7.60;6.90;;;19.80;99.90;;;;;;4988778;28;20229;-30
2023/08/24 01:45:29;;;;;;;8.50;6.95;;;19.70;99.90;;;;;;4989493;28;20186;-29
2023/08/24 01:47:57;;;;;;;7.15;6.55;;;19.70;99.90;;;;;;4992743;28;20203;-29
2023/08/24 01:50:23;;;;;;;8.07;7.35;;;19.60;99.90;;;;;;4993543;28;20230;-29
2023/08/24 01:52:50;;;;;;;8.00;7.20;;;19.60;99.90;;;;;;4992641;28;20208;-29
2023/08/24 01:55:19;;;;;;;8.10;7.30;;;19.50;99.90;;;;;;5010009;28;20176;-29
2023/08/24 01:57:46;;;;;;;8.43;7.53;;;19.50;99.90;;;;;;4977341;28;20196;-29
2023/08/24 02:00:12;;;;;;;9.85;6.95;;;19.50;99.90;;;;;;5009996;28;20230;-29
2023/08/24 02:02:44;;;;;;;8.20;7.40;;;19.50;99.90;;;;;;5009483;28;20176;-29
2023/08/24 02:05:10;;;;;;;8.77;7.35;;;19.50;99.90;;;;;;4993374;28;20179;-29
2023/08/24 02:07:36;;;;;;;7.93;7.13;;;19.40;99.90;;;;;;4993415;28;20315;-29
2023/08/24 02:10:03;;;;;;;8.95;7.50;;;19.30;99.90;;;;;;4993423;28;20180;-29
2023/08/24 02:12:29;;;;;;;9.25;7.35;;;19.30;99.90;;;;;;4993369;28;20182;-30
2023/08/24 02:14:55;;;;;;;7.82;7.22;;;19.20;99.90;;;;;;5009582;28;20176;-29
2023/08/24 02:17:20;;;;;;;10.05;7.35;;;19.20;99.90;;;;;;5008619;28;20175;-29
2023/08/24 02:19:46;;;;;;;8.27;7.53;;;19.20;99.90;;;;;;5009498;28;20250;-30
2023/08/24 02:22:12;;;;;;;8.65;7.28;;;19.20;99.90;;;;;;4976969;28;20180;-29
2023/08/24 02:24:39;;;;;;;7.68;6.85;;;19.20;99.90;;;;;;4993126;28;20176;-29
2023/08/24 02:27:05;;;;;;;8.95;7.07;;;19.30;99.90;;;;;;5009158;28;20635;-29
2023/08/24 02:29:30;;;;;;;11.82;7.75;;;19.30;99.90;;;;;;5009186;28;20206;-29
2023/08/24 02:31:56;;;;;;;8.05;7.25;;;19.30;99.90;;;;;;4994104;28;20183;-29
2023/08/24 02:34:22;;;;;;;7.95;7.15;;;19.20;99.90;;;;;;4992769;28;20290;-29
2023/08/24 02:36:48;;;;;;;7.75;6.95;;;19.20;99.90;;;;;;5008932;28;20270;-29
2023/08/24 02:39:14;;;;;;;8.10;7.43;;;19.20;99.90;;;;;;5008994;28;20204;-29
2023/08/24 02:41:40;;;;;;;7.82;7.03;;;19.10;99.90;;;;;;5009031;28;20181;-29
2023/08/24 02:44:06;;;;;;;8.57;7.78;;;19.00;99.90;;;;;;5008947;28;20184;-29
2023/08/24 02:46:32;;;;;;;8.23;7.40;;;19.00;99.90;;;;;;5008770;28;20235;-29
2023/08/24 02:48:58;;;;;;;9.48;7.97;;;18.90;99.90;;;;;;5009009;28;20200;-29
2023/08/24 02:51:24;;;;;;;8.27;7.50;;;19.00;99.90;;;;;;5008855;28;20199;-29
2023/08/24 02:53:50;;;;;;;9.68;7.22;;;19.10;99.90;;;;;;4992743;28;20204;-29
2023/08/24 02:56:16;;;;;;;9.95;7.47;;;19.20;99.90;;;;;;4976400;28;20280;-29
2023/08/24 02:58:42;;;;;;;8.18;7.13;;;19.30;99.90;;;;;;4992296;28;20283;-29
2023/08/24 03:01:08;;;;;;;8.52;7.63;;;19.30;99.90;;;;;;4992484;28;20184;-28
2023/08/24 03:03:35;;;;;;;9.15;7.00;;;19.30;99.90;;;;;;4992366;28;20187;-28
2023/08/24 03:06:06;;;;;;;9.15;8.25;;;19.30;99.90;;;;;;4992240;28;20188;-30
2023/08/24 03:08:33;;;;;;;8.52;7.57;;;19.30;99.90;;;;;;4992252;28;20234;-29
2023/08/24 03:11:00;;;;;;;8.77;7.78;;;19.20;99.90;;;;;;4992197;28;20211;-29
2023/08/24 03:13:26;;;;;;;7.95;7.15;;;19.20;99.90;;;;;;4991094;28;20262;-29
2023/08/24 03:15:54;;;;;;;8.00;7.20;;;19.30;99.90;;;;;;4991864;28;20176;-29
2023/08/24 03:18:20;;;;;;;9.35;7.18;;;19.20;99.90;;;;;;4989997;28;20211;-29
2023/08/24 03:20:47;;;;;;;9.13;8.23;;;19.20;99.90;;;;;;5007383;28;20216;-29
2023/08/24 03:23:15;;;;;;;8.52;7.72;;;19.20;99.90;;;;;;4990986;28;20192;-29
2023/08/24 03:25:42;;;;;;;8.35;7.68;;;19.20;99.90;;;;;;4991519;28;20184;-29
2023/08/24 03:28:09;;;;;;;8.48;7.70;;;19.20;99.90;;;;;;5006476;28;20200;-29
2023/08/24 03:30:45;;;;;;;8.52;7.70;;;19.10;99.90;;;;;;4992033;28;20184;-29
2023/08/24 03:33:11;;;;;;;8.35;7.55;;;19.20;99.90;;;;;;4991943;28;20299;-29
2023/08/24 03:35:37;;;;;;;8.20;7.40;;;19.10;99.90;;;;;;5007788;28;20243;-28
2023/08/24 03:38:04;;;;;;;9.00;7.63;;;19.20;99.90;;;;;;5007317;28;20215;-29
2023/08/24 03:40:30;;;;;;;9.95;8.05;;;19.20;99.90;;;;;;5007573;28;20191;-29
2023/08/24 03:42:56;;;;;;;8.95;8.00;;;19.20;99.90;;;;;;5008104;28;20188;-28
2023/08/24 03:45:22;;;;;;;8.65;7.72;;;19.20;99.90;;;;;;4991641;28;20188;-29
2023/08/24 03:47:49;;;;;;;8.93;7.93;;;19.30;99.90;;;;;;5007633;28;20204;-29
2023/08/24 03:50:15;;;;;;;9.40;7.93;;;19.30;99.90;;;;;;5007771;28;20180;-29
2023/08/24 03:52:41;;;;;;;10.25;7.97;;;19.30;99.90;;;;;;5008005;28;20187;-29
2023/08/24 03:55:08;;;;;;;8.75;7.88;;;19.30;99.90;;;;;;5007771;28;20176;-29
2023/08/24 03:57:34;;;;;;;8.25;7.40;;;19.40;99.90;;;;;;4991281;28;20250;-29
2023/08/24 04:00:04;;;;;;;12.32;8.38;;;19.40;99.90;;;;;;5007500;28;20199;-29
2023/08/24 04:02:43;;;;;;;10.45;7.65;;;19.40;99.90;;;;;;5006665;28;20182;-29
2023/08/24 04:05:13;;;;;;;8.27;7.32;;;19.50;99.90;;;;;;4991052;28;20267;-29
2023/08/24 04:07:41;;;;;;;8.48;7.65;;;19.50;99.90;;;;;;5007374;28;20286;-29
2023/08/24 04:10:07;;;;;;;8.50;7.30;;;19.40;99.90;;;;;;4974604;28;20184;-28
2023/08/24 04:12:33;;;;;;;9.43;7.70;;;19.40;99.90;;;;;;4991170;28;20365;-29
2023/08/24 04:15:00;;;;;;;8.60;7.80;;;19.30;99.90;;;;;;5007364;28;20307;-28
2023/08/24 04:17:26;;;;;;;8.43;7.63;;;19.30;99.90;;;;;;5006850;28;20279;-29
2023/08/24 04:19:52;;;;;;;8.65;7.60;;;19.30;99.90;;;;;;5008017;28;20180;-29
2023/08/24 04:22:19;;;;;;;8.63;7.82;;;19.40;99.90;;;;;;5006610;28;20183;-29
2023/08/24 04:24:45;;;;;;;9.88;7.72;;;19.40;99.90;;;;;;5005540;28;20180;-29
2023/08/24 04:27:11;;;;;;;8.52;7.75;;;19.40;99.90;;;;;;4989861;28;20643;-29
2023/08/24 04:29:37;;;;;;;8.38;7.53;;;19.20;99.90;;;;;;5006980;28;20204;-29
2023/08/24 04:32:03;;;;;;;8.65;7.82;;;19.10;99.90;;;;;;5006939;28;20198;-28
2023/08/24 04:34:29;;;;;;;8.63;7.75;;;19.10;99.90;;;;;;5006446;28;20211;-29
2023/08/24 04:36:55;;;;;;;8.95;8.05;;;19.20;99.90;;;;;;5006822;28;20180;-29
2023/08/24 04:39:21;;;;;;;9.30;8.32;;;19.20;99.90;;;;;;5006989;28;20685;-28
2023/08/24 04:41:47;;;;;;;9.77;8.23;;;19.10;99.90;;;;;;4990643;28;20270;-29
2023/08/24 04:44:12;;;;;;;9.80;8.40;;;19.10;99.90;;;;;;5006963;28;20188;-29
2023/08/24 04:46:38;;;;;;;8.75;7.60;;;19.10;99.90;;;;;;5006715;28;20200;-28
2023/08/24 04:49:04;;;;;;;8.75;7.88;;;19.10;99.90;;;;;;4990318;28;20215;-29
2023/08/24 04:51:30;;;;;;;9.43;8.45;;;19.10;99.90;;;;;;5007075;28;20180;-29
2023/08/24 04:53:56;;;;;;;12.20;8.30;;;19.00;99.90;;;;;;5006882;28;20239;-29
2023/08/24 04:56:22;;;;;;;14.68;8.30;;;18.90;99.90;;;;;;5006570;28;20215;-28
2023/08/24 04:58:56;;;;;;;11.02;7.90;;;19.00;99.90;;;;;;5006608;28;20242;-29
2023/08/24 05:01:23;;;;;;;11.38;7.78;;;19.00;99.90;;;;;;4990042;28;20179;-29
2023/08/24 05:03:48;;;;;;;10.55;7.70;;;19.00;99.90;;;;;;5006814;28;20190;-29
2023/08/24 05:06:14;;;;;;;9.07;8.18;;;19.10;99.90;;;;;;4990293;28;20191;-28
2023/08/24 05:08:40;;;;;;;9.48;8.57;;;19.10;99.90;;;;;;4990264;28;20258;-29
2023/08/24 05:11:19;;;;;;;9.25;8.00;;;19.20;99.90;;;;;;5006704;28;20184;-28
2023/08/24 05:13:46;;;;;;;9.48;8.68;;;19.20;99.90;;;;;;4989566;28;20270;-29
2023/08/24 05:16:12;;;;;;;9.13;8.07;;;19.20;99.90;;;;;;4990447;28;20192;-29
2023/08/24 05:18:39;;;;;;;9.60;8.55;;;19.20;99.90;;;;;;4989927;28;20207;-29
2023/08/24 05:21:05;;;;;;;8.18;7.38;;;19.20;99.90;;;;;;5007038;28;20190;-29
2023/08/24 05:23:32;;;;;;;9.25;8.32;;;19.20;99.90;;;;;;4994352;28;20207;-29
2023/08/24 05:25:59;;;;;;;9.93;8.13;;;19.20;99.90;;;;;;4993997;28;20188;-29
2023/08/24 05:28:26;;;;;;;9.55;8.65;;;19.20;99.90;;;;;;4994127;28;20199;-29
2023/08/24 05:30:53;;;;;;;9.25;8.35;;;19.30;99.90;;;;;;4994188;28;20242;-29
2023/08/24 05:33:20;;;;;;;11.50;8.88;;;19.40;99.90;;;;;;4993479;28;20691;-29
2023/08/24 05:35:46;;;;;;;8.95;8.15;;;19.40;99.90;;;;;;4993244;28;20180;-29
2023/08/24 05:38:13;;;;;;;9.00;8.10;;;19.50;99.90;;;;;;5008951;28;20258;-29
2023/08/24 05:40:41;;;;;;;10.18;8.20;;;19.60;99.90;;;;;;4993814;28;20215;-29
2023/08/24 05:43:07;;;;;;;9.40;8.48;;;19.70;99.90;;;;;;4978040;28;20222;-28
2023/08/24 05:45:32;;;;;;;9.75;8.25;;;19.80;99.90;;;;;;4994031;28;20211;-29
2023/08/24 05:47:58;;;;;;;10.48;8.70;;;19.80;99.90;;;;;;5009944;28;20195;-28
2023/08/24 05:50:24;;;;;;;10.38;8.95;;;19.90;99.90;;;;;;5010018;28;20190;-29
2023/08/24 05:52:50;;;;;;;8.57;7.57;;;19.90;99.90;;;;;;4993613;28;20270;-28
2023/08/24 05:55:16;;;;;;;10.50;8.10;;;20.00;99.90;;;;;;5009851;28;20252;-29
2023/08/24 05:57:42;;;;;;;10.38;8.80;;;20.10;99.90;;;;;;4993521;28;20207;-28
2023/08/24 06:00:09;;;;;;;8.93;7.63;;;20.10;99.90;;;;;;5010196;28;20191;-29
2023/08/24 06:02:39;;;;;;;9.45;8.02;;;20.20;99.90;;;;;;5009788;28;20211;-29
2023/08/24 06:05:06;;;;;;;10.02;8.10;;;20.20;99.90;;;;;;4993214;28;20242;-29
2023/08/24 06:07:32;;;;;;;11.23;8.93;;;20.20;99.90;;;;;;4992931;28;20172;-29
2023/08/24 06:09:58;;;;;;;8.85;7.95;;;20.20;99.90;;;;;;4993786;28;20219;-29
2023/08/24 06:12:24;;;;;;;13.82;8.10;;;20.20;99.90;;;;;;4993403;28;20184;-29
2023/08/24 06:14:50;;;;;;;9.63;8.13;;;20.20;99.90;;;;;;4993376;28;20215;-29
2023/08/24 06:17:16;;;;;;;9.27;8.32;;;20.20;99.90;;;;;;5009351;28;20180;-29
2023/08/24 06:19:42;;;;;;;8.55;7.63;;;20.20;99.90;;;;;;4993216;28;20211;-28
2023/08/24 06:22:08;;;;;;;8.57;7.78;;;20.20;99.90;;;;;;5008875;28;20172;-29
2023/08/24 06:24:34;;;;;;;9.50;8.52;;;20.20;99.90;;;;;;5009363;28;20198;-29
2023/08/24 06:27:00;;;;;;;9.27;8.38;;;20.20;99.90;;;;;;4992611;28;20180;-29
2023/08/24 06:29:28;;;;;;;10.60;8.50;;;20.30;99.90;;;;;;5009528;28;20298;-29
2023/08/24 06:31:55;;;;;;;8.10;7.30;;;20.40;99.90;;;;;;4992359;28;20283;-29
2023/08/24 06:34:21;;;;;;;11.25;8.00;;;20.40;99.90;;;;;;5009089;28;20244;-29
2023/08/24 06:36:47;;;;;;;9.60;7.35;;;20.50;99.90;;;;;;4992755;28;20194;-29
2023/08/24 06:39:13;;;;;;;9.05;8.25;;;20.50;99.90;;;;;;5015330;28;20198;-29
2023/08/24 06:41:39;;;;;;;10.60;8.38;;;20.60;99.90;;;;;;4999079;28;20193;-29
2023/08/24 06:44:07;;;;;;;8.90;8.02;;;20.60;99.90;;;;;;4999563;28;20186;-29
2023/08/24 06:46:33;;;;;;;9.00;8.20;;;20.70;99.90;;;;;;4999150;28;20261;-29
2023/08/24 06:48:59;;;;;;;8.55;7.75;;;20.70;99.90;;;;;;4999038;28;20203;-28
2023/08/24 06:51:25;;;;;;;12.95;8.98;;;20.70;99.90;;;;;;4999142;28;20186;-29
2023/08/24 06:53:51;;;;;;;8.13;7.25;;;20.70;99.90;;;;;;4998734;28;20199;-29
2023/08/24 06:56:20;;;;;;;8.52;7.68;;;20.70;99.90;;;;;;4999252;28;20261;-29
2023/08/24 06:58:48;;;;;;;9.80;8.38;;;20.80;99.90;;;;;;4998965;28;20234;-29
2023/08/24 07:01:14;;;;;;;9.27;8.20;;;20.80;99.90;;;;;;4998483;28;20186;-29
2023/08/24 07:03:40;;;;;;;10.13;7.90;;;20.80;99.90;;;;;;4998889;28;20187;-29
2023/08/24 07:06:12;;;;;;;9.57;7.72;;;20.80;99.90;;;;;;4997769;28;20183;-28
2023/08/24 07:08:38;;;;;;;10.05;7.60;;;20.80;99.90;;;;;;4998977;28;20226;-29
2023/08/24 07:11:04;;;;;;;9.10;7.38;;;20.90;99.90;;;;;;4998755;28;20210;-29
2023/08/24 07:13:30;;;;;;;8.20;7.45;;;21.00;99.90;;;;;;4998906;28;20217;-29
2023/08/24 07:15:56;;;;;;;12.93;7.95;;;21.10;99.90;;;;;;4998643;28;20175;-28
2023/08/24 07:18:22;;;;;;;8.57;7.68;;;21.20;99.90;;;;;;4998051;28;20281;-29
2023/08/24 07:20:48;;;;;;;8.88;7.60;;;21.40;99.90;;;;;;4998606;28;20178;-28
2023/08/24 07:23:14;;;;;;;9.60;7.50;;;21.50;99.90;;;;;;4998581;28;20250;-29
2023/08/24 07:25:41;;;;;;;9.02;7.95;;;21.50;99.90;;;;;;4998330;28;20178;-29
2023/08/24 07:28:08;;;;;;;7.65;6.85;;;21.60;99.90;;;;;;4998054;28;20202;-29
2023/08/24 07:30:35;;;;;;;11.48;8.20;;;21.70;99.90;;;;;;4998606;28;20189;-29
2023/08/24 07:33:03;;;;;;;9.88;8.13;;;21.70;99.90;;;;;;4998426;28;20213;-28
2023/08/24 07:35:28;;;;;;;8.93;7.57;;;21.80;99.90;;;;;;4998423;28;20179;-29
2023/08/24 07:37:54;;;;;;;8.43;7.47;;;21.80;99.90;;;;;;4998019;28;20209;-29
2023/08/24 07:40:20;;;;;;;11.80;8.27;;;21.80;99.90;;;;;;4998229;28;20186;-29
2023/08/24 07:42:48;;;;;;;7.82;6.90;;;21.80;99.90;;;;;;4997985;28;20210;-29
2023/08/24 07:45:14;;;;;;;9.77;7.10;;;21.80;99.90;;;;;;4997416;28;20178;-29
2023/08/24 07:47:41;;;;;;;9.48;7.28;;;21.90;99.90;;;;;;4997850;28;20322;-29
2023/08/24 07:50:08;;;;;;;9.18;7.88;;;21.90;99.90;;;;;;4998209;28;20644;-29
2023/08/24 07:52:34;;;;;;;9.23;7.80;;;21.90;99.90;;;;;;4998046;28;20178;-29
2023/08/24 07:55:03;;;;;;;8.93;8.00;;;22.00;99.90;;;;;;5012969;28;20225;-29
2023/08/24 07:57:29;;;;;;;9.60;8.00;;;22.20;99.90;;;;;;4997723;28;20193;-29
2023/08/24 07:59:55;;;;;;;12.15;7.78;;;22.40;99.90;;;;;;5014324;28;20262;-29
2023/08/24 08:02:21;;;;;;;10.52;8.45;;;22.50;99.90;;;;;;4997623;28;20317;-29
2023/08/24 08:04:47;;;;;;;10.77;8.23;;;22.70;99.90;;;;;;4997895;28;20191;-29
2023/08/24 08:07:12;;;;;;;9.32;7.50;;;22.90;99.90;;;;;;4997494;28;20242;-29
2023/08/24 08:09:38;;;;;;;13.35;8.10;;;23.10;99.90;;;;;;4997567;28;20203;-29
2023/08/24 08:12:04;;;;;;;9.20;7.68;;;23.20;99.90;;;;;;4997779;28;20183;-29
2023/08/24 08:14:30;;;;;;;10.43;6.95;;;23.40;99.90;;;;;;4997480;28;20285;-29
2023/08/24 08:16:57;;;;;;;14.15;7.40;;;23.60;99.90;;;;;;4997358;28;20277;-29
2023/08/24 08:19:25;;;;;;;8.60;6.95;;;23.70;99.90;;;;;;5012820;28;20268;-29
2023/08/24 08:21:51;;;;;;;12.98;7.55;;;23.90;99.90;;;;;;4997415;28;20174;-29
2023/08/24 08:24:17;;;;;;;9.27;7.63;;;24.10;99.90;;;;;;4997608;28;20185;-29
2023/08/24 08:26:43;;;;;;;9.85;7.10;;;24.20;99.90;;;;;;4997236;28;20186;-29
2023/08/24 08:29:08;;;;;;;8.20;6.60;;;24.40;99.90;;;;;;4998910;28;20214;-30
2023/08/24 08:31:35;;;;;;;7.72;6.95;;;24.40;99.90;;;;;;5015133;28;20187;-29
2023/08/24 08:34:04;;;;;;;9.88;7.00;;;24.50;99.90;;;;;;4999109;28;20222;-30
2023/08/24 08:36:32;;;;;;;6.95;6.25;;;24.60;99.90;;;;;;4999040;28;20273;-30
2023/08/24 08:38:58;;;;;;;7.80;6.40;;;24.80;99.90;;;;;;4999119;28;20195;-30
2023/08/24 08:41:30;;;;;;;5.80;5.30;;;24.90;99.90;;;;;;4999218;28;20200;-29
2023/08/24 08:43:56;;;;;;;7.72;6.30;;;24.90;99.90;;;;;;4997478;28;20178;-30
2023/08/24 08:46:22;;;;;;;9.55;6.95;;;24.80;99.90;;;;;;4997227;28;20183;-29
2023/08/24 08:48:50;;;;;;;6.40;5.82;;;24.60;99.90;;;;;;4996765;28;20230;-29
2023/08/24 08:51:17;;;;;;;6.95;6.28;;;24.80;99.90;;;;;;4997212;28;20182;-30
2023/08/24 08:53:43;;;;;;;9.40;6.57;;;25.00;99.90;;;;;;5013343;28;20202;-30
2023/08/24 08:56:10;;;;;;;6.18;5.38;;;25.10;99.90;;;;;;4997042;28;20206;-30
2023/08/24 08:58:37;;;;;;;5.78;5.28;;;25.40;99.90;;;;;;4996447;28;20245;-30
2023/08/24 09:01:04;;;;;;;7.30;5.70;;;25.70;99.90;;;;;;4997142;28;20174;-30
2023/08/24 09:03:32;;;;;;;6.40;5.82;;;26.00;99.90;;;;;;4997089;28;20277;-30
2023/08/24 09:05:58;;;;;;;7.78;5.80;;;26.20;99.90;;;;;;4996912;28;20270;-30
2023/08/24 09:08:25;;;;;;;5.68;5.07;;;26.30;99.90;;;;;;4996776;28;20260;-30
2023/08/24 09:10:51;;;;;;;6.43;5.63;;;26.40;99.90;;;;;;4996917;28;20187;-30
2023/08/24 09:13:17;;;;;;;7.03;5.75;;;26.70;99.90;;;;;;4996510;28;20213;-30
2023/08/24 09:15:43;;;;;;;6.50;5.90;;;26.60;99.90;;;;;;4996864;28;20175;-30
2023/08/24 09:18:09;;;;;;;10.82;6.13;;;26.50;99.90;;;;;;4996241;28;20210;-30
2023/08/24 09:20:35;;;;;;;6.80;5.68;;;26.70;99.90;;;;;;4997055;28;20182;-30
2023/08/24 09:23:02;;;;;;;6.28;5.68;;;26.70;99.90;;;;;;4996800;28;20185;-30
2023/08/24 09:25:28;;;;;;;8.63;5.80;;;26.90;99.90;;;;;;4996921;28;20258;-30
2023/08/24 09:28:03;;;;;;;6.38;5.78;;;27.10;99.90;;;;;;5012062;28;20285;-30
2023/08/24 09:30:31;;;;;;;7.00;5.20;;;27.20;99.90;;;;;;5013036;28;20232;-30
2023/08/24 09:33:03;;;;;;;6.70;5.97;;;27.50;99.90;;;;;;4996411;28;20186;-29
2023/08/24 09:35:34;;;;;;;6.85;5.85;;;27.70;99.90;;;;;;5013163;28;20198;-29
2023/08/24 09:38:01;;;;;;;5.95;5.38;;;27.60;99.90;;;;;;4996350;28;20213;-30
2023/08/24 09:40:26;;;;;;;6.43;5.10;;;27.80;99.90;;;;;;4996784;28;20205;-31
2023/08/24 09:42:52;;;;;;;8.77;5.55;;;28.10;99.90;;;;;;4996273;28;20218;-30
2023/08/24 09:45:18;;;;;;;6.03;5.43;;;28.30;99.90;;;;;;4996408;28;20175;-30
2023/08/24 09:47:52;;;;;;;8.15;5.28;;;28.50;99.90;;;;;;4996011;28;20199;-30
2023/08/24 09:50:18;;;;;;;6.30;5.30;;;28.60;99.90;;;;;;5013175;28;20175;-30
2023/08/24 09:52:46;;;;;;;7.00;5.80;;;28.80;99.90;;;;;;5012806;28;20232;-30
2023/08/24 09:55:15;;;;;;;6.13;5.47;;;29.00;99.90;;;;;;4996388;28;20319;-30
2023/08/24 09:57:42;;;;;;;6.53;5.10;;;29.00;99.90;;;;;;4996080;28;20203;-31
2023/08/24 10:00:15;;;;;;;8.63;5.35;;;29.30;99.90;;;;;;5012650;28;20175;-30
2023/08/24 10:03:03;;;;;;;7.68;5.13;;;29.40;99.90;;;;;;4996564;28;20234;-31
2023/08/24 10:05:31;;;;;;;6.20;5.60;;;29.60;99.90;;;;;;5011720;28;20183;-30
2023/08/24 10:07:58;;;;;;;8.70;5.88;;;29.50;99.90;;;;;;4997664;28;20599;-31
2023/08/24 10:10:25;;;;;;;6.30;5.70;;;29.50;99.90;;;;;;5034088;28;20175;-30
2023/08/24 10:12:57;;;;;;;6.18;5.38;;;29.60;99.90;;;;;;4999908;28;20183;-31
2023/08/24 10:15:24;;;;;;;7.15;5.85;;;29.40;99.90;;;;;;4999768;28;20645;-30
2023/08/24 10:17:51;;;;;;;7.05;5.88;;;29.40;99.90;;;;;;5016203;28;20210;-37
2023/08/24 10:20:21;;;;;;;7.20;5.63;;;29.50;99.90;;;;;;4999553;28;20193;-29
2023/08/24 10:22:48;;;;;;;6.13;5.53;;;29.50;99.90;;;;;;4999905;28;20171;-30
2023/08/24 10:25:17;;;;;;;5.97;5.10;;;29.50;99.90;;;;;;5016092;28;20274;-29
2023/08/24 10:27:45;;;;;;;5.85;5.25;;;29.50;99.90;;;;;;5033522;28;20222;-29
2023/08/24 10:30:12;;;;;;;8.85;5.55;;;29.70;99.90;;;;;;5015964;28;20177;-30
2023/08/24 10:32:43;;;;;;;7.78;5.55;;;29.80;99.90;;;;;;4998177;28;20171;-31
2023/08/24 10:35:08;;;;;;;8.88;5.70;;;29.70;99.90;;;;;;5020665;28;20211;-30
2023/08/24 10:37:35;;;;;;;8.00;5.78;;;29.70;99.90;;;;;;4994893;28;20191;-31
2023/08/24 10:40:01;;;;;;;6.40;5.80;;;29.90;99.90;;;;;;5011576;28;20179;-30
2023/08/24 10:42:26;;;;;;;9.13;6.30;;;30.20;99.90;;;;;;5011085;28;20179;-30
2023/08/24 10:44:53;;;;;;;6.63;5.43;;;30.40;99.90;;;;;;5011864;28;20276;-30
2023/08/24 10:47:20;;;;;;;7.90;5.75;;;30.70;99.90;;;;;;4995347;28;20182;-30
2023/08/24 10:49:55;;;;;;;7.88;5.22;;;30.70;99.90;;;;;;4996227;28;20274;-30
2023/08/24 10:52:22;;;;;;;7.55;5.60;;;30.70;99.90;;;;;;5012242;28;20186;-30
2023/08/24 10:54:50;;;;;;;10.10;5.90;;;30.60;99.90;;;;;;4995820;28;20220;-31
2023/08/24 10:57:23;;;;;;;7.78;5.90;;;30.80;99.90;;;;;;5013475;28;20195;-31
2023/08/24 11:00:10;;;;;;;8.05;6.20;;;31.00;99.90;;;;;;4995403;28;20179;-31
2023/08/24 11:02:50;;;;;;;6.53;5.93;;;31.00;99.90;;;;;;5011028;28;20186;-30
2023/08/24 11:05:21;;;;;;;6.75;6.00;;;30.90;99.90;;;;;;4995458;28;20187;-30
2023/08/24 11:07:58;;;;;;;9.93;5.68;;;30.90;99.90;;;;;;5010744;28;20226;-31
2023/08/24 11:10:26;;;;;;;6.55;5.93;;;30.90;99.90;;;;;;5011847;28;20261;-30
2023/08/24 11:13:08;;;;;;;6.88;5.60;;;31.00;99.90;;;;;;5011931;28;20194;-30
2023/08/24 11:15:37;;;;;;;8.95;5.80;;;31.20;99.90;;;;;;4995023;28;20175;-31
2023/08/24 11:18:23;;;;;;;6.82;5.85;;;31.10;99.90;;;;;;5012625;28;20307;-31
2023/08/24 11:20:54;;;;;;;7.18;5.97;;;31.10;99.90;;;;;;5011096;28;20233;-30
2023/08/24 11:23:21;;;;;;;8.63;5.97;;;30.90;99.90;;;;;;5011763;28;20278;-30
2023/08/24 11:25:51;;;;;;;6.57;5.97;;;30.90;99.90;;;;;;5011203;28;20317;-30
2023/08/24 11:28:21;;;;;;;6.43;5.80;;;31.10;99.90;;;;;;4994358;28;20203;-31
2023/08/24 11:30:48;;;;;;;6.95;6.20;;;31.30;99.90;;;;;;4995286;28;20183;-30
2023/08/24 11:33:14;;;;;;;6.95;6.28;;;31.60;99.90;;;;;;5012378;28;20202;-31
2023/08/24 11:35:44;;;;;;;9.70;6.15;;;31.80;99.90;;;;;;5012332;28;20221;-31
2023/08/24 11:38:11;;;;;;;9.27;6.38;;;31.70;99.90;;;;;;5010988;28;20199;-29
2023/08/24 11:40:37;;;;;;;6.70;5.88;;;31.80;99.90;;;;;;5011891;28;20201;-31
2023/08/24 11:43:05;;;;;;;6.93;5.85;;;31.90;99.90;;;;;;4994881;28;20175;-31
2023/08/24 11:45:33;;;;;;;7.13;6.15;;;32.10;99.90;;;;;;4994832;28;20319;-30
2023/08/24 11:48:02;;;;;;;9.38;6.13;;;32.00;99.90;;;;;;5010944;28;20198;-31
2023/08/24 11:50:28;;;;;;;8.82;5.65;;;32.00;99.90;;;;;;5010867;28;20181;-31
2023/08/24 11:52:54;;;;;;;7.93;6.15;;;32.20;99.90;;;;;;4993658;28;20185;-30
2023/08/24 11:55:24;;;;;;;9.63;6.20;;;32.20;99.90;;;;;;5010279;28;20182;-31
2023/08/24 11:57:50;;;;;;;8.88;6.20;;;32.20;99.90;;;;;;5011797;28;20199;-30
2023/08/24 12:00:20;;;;;;;7.35;5.82;;;32.50;99.90;;;;;;5010919;28;20183;-30
2023/08/24 12:02:46;;;;;;;9.32;6.35;;;32.60;99.90;;;;;;4994166;28;20180;-30
2023/08/24 12:05:25;;;;;;;8.85;5.85;;;32.70;99.90;;;;;;5010932;28;20261;-31
2023/08/24 12:07:53;;;;;;;6.25;5.65;;;32.70;99.90;;;;;;5010373;28;20305;-30
2023/08/24 12:10:20;;;;;;;6.80;6.00;;;32.70;99.90;;;;;;5010839;28;20226;-30
2023/08/24 12:12:46;;;;;;;8.20;6.53;;;32.60;99.90;;;;;;5010387;28;20187;-31
2023/08/24 12:15:22;;;;;;;6.40;5.50;;;32.70;99.90;;;;;;4992654;28;20214;-30
2023/08/24 12:17:48;;;;;;;8.60;6.15;;;32.80;99.90;;;;;;5010317;28;20190;-31
2023/08/24 12:20:22;;;;;;;7.53;5.72;;;32.80;99.90;;;;;;4994136;28;20188;-31
2023/08/24 12:22:55;;;;;;;10.27;6.80;;;32.90;99.90;;;;;;5010768;28;20214;-31
2023/08/24 12:25:25;;;;;;;10.40;6.60;;;33.10;99.90;;;;;;4994073;28;20179;-31
2023/08/24 12:27:52;;;;;;;8.07;6.50;;;33.20;99.90;;;;;;4993677;28;20269;-30
2023/08/24 12:30:19;;;;;;;10.02;6.28;;;33.30;99.90;;;;;;4993915;28;20210;-31
2023/08/24 12:32:52;;;;;;;10.68;6.50;;;33.20;99.90;;;;;;4993968;28;20279;-30
2023/08/24 12:35:33;;;;;;;9.90;5.88;;;33.30;99.90;;;;;;5011157;28;20201;-30
2023/08/24 12:38:04;;;;;;;9.07;6.13;;;33.50;99.90;;;;;;5009606;28;20294;-30
2023/08/24 12:40:29;;;;;;;10.25;5.93;;;33.70;99.90;;;;;;4993990;28;20183;-31
2023/08/24 12:42:55;;;;;;;8.43;6.13;;;34.10;99.90;;;;;;5011780;28;20646;-31
2023/08/24 12:45:21;;;;;;;8.52;5.82;;;34.40;99.90;;;;;;5010052;28;20206;-31
2023/08/24 12:47:47;;;;;;;5.93;5.32;;;34.50;99.90;;;;;;5009661;28;20191;-31